Time;durP1;ratioP1;P1;durP2;ratioP2;P2;SDS_P1;SDS_P2;PMS_P1;PMS_P2;Temp;Humidity;BMP_temperature;BMP_pressure;BME280_temperature;BME280_humidity;BME280_pressure;Samples;Min_cycle;Max_cycle;Signal;HPM_P1;HPM_P2
2023/03/28 00:01:57;;;;;;;16.08;1.63;;;13.70;99.90;;;;;;7407231;19;19931;-74
2023/03/28 00:04:23;;;;;;;12.48;1.50;;;13.80;99.90;;;;;;7404904;19;19990;-73
2023/03/28 00:06:50;;;;;;;11.35;1.65;;;13.80;99.90;;;;;;7405992;19;19922;-74
2023/03/28 00:09:17;;;;;;;12.75;1.52;;;13.70;99.90;;;;;;7401745;19;19925;-74
2023/03/28 00:11:43;;;;;;;17.42;1.92;;;13.70;99.90;;;;;;7405392;19;19910;-73
2023/03/28 00:14:09;;;;;;;13.32;1.58;;;13.70;99.90;;;;;;7403579;19;19925;-73
2023/03/28 00:16:38;;;;;;;8.00;1.30;;;13.70;99.90;;;;;;7404069;19;19919;-73
2023/03/28 00:19:11;;;;;;;9.93;2.38;;;13.80;99.90;;;;;;7403762;19;19982;-73
2023/03/28 00:21:40;;;;;;;10.77;1.80;;;13.80;99.90;;;;;;7401585;19;20522;-73
2023/03/28 00:24:09;;;;;;;10.07;1.98;;;13.80;99.90;;;;;;7372578;19;19911;-73
2023/03/28 00:26:36;;;;;;;10.57;1.85;;;13.70;99.90;;;;;;7402199;19;20371;-72
2023/03/28 00:29:04;;;;;;;14.60;2.30;;;13.70;99.90;;;;;;7400949;19;19929;-72
2023/03/28 00:31:31;;;;;;;7.97;1.45;;;13.60;99.90;;;;;;7402606;19;19939;-74
2023/03/28 00:33:57;;;;;;;13.45;1.65;;;13.60;99.90;;;;;;7404140;19;19919;-73
2023/03/28 00:36:25;;;;;;;10.30;1.92;;;13.60;99.90;;;;;;7402019;19;19939;-72
2023/03/28 00:39:05;;;;;;;10.50;1.88;;;13.70;99.90;;;;;;7404814;19;20343;-72
2023/03/28 00:41:33;;;;;;;10.40;1.45;;;13.60;99.90;;;;;;7401414;19;20350;-73
2023/03/28 00:44:41;;;;;;;11.50;1.88;;;13.60;99.90;;;;;;7400476;19;19955;-73
2023/03/28 00:47:17;;;;;;;10.77;1.55;;;13.70;99.90;;;;;;7400396;19;20367;-73
2023/03/28 00:49:45;;;;;;;12.48;1.88;;;13.80;99.50;;;;;;7403561;19;19934;-72
2023/03/28 00:52:14;;;;;;;9.00;1.60;;;13.80;99.30;;;;;;7399988;19;19952;-75
2023/03/28 00:54:40;;;;;;;10.38;1.40;;;13.90;99.40;;;;;;7400100;19;19915;-73
2023/03/28 00:57:08;;;;;;;10.73;1.70;;;14.00;99.30;;;;;;7401463;19;19919;-73
2023/03/28 00:59:36;;;;;;;15.50;1.80;;;14.10;99.30;;;;;;7401079;19;19922;-73
2023/03/28 01:02:03;;;;;;;8.27;1.33;;;14.10;99.40;;;;;;7402171;19;20259;-73
2023/03/28 01:04:48;;;;;;;9.52;1.70;;;14.20;99.30;;;;;;7401018;19;20427;-73
2023/03/28 01:07:17;;;;;;;7.45;1.30;;;14.10;99.20;;;;;;7399801;19;19922;-74
2023/03/28 01:09:44;;;;;;;9.07;1.33;;;14.00;99.00;;;;;;7399742;19;19911;-73
2023/03/28 01:12:12;;;;;;;12.35;1.20;;;14.00;99.10;;;;;;7401993;19;19918;-73
2023/03/28 01:14:38;;;;;;;11.82;1.80;;;14.00;99.00;;;;;;7397821;19;20383;-73
2023/03/28 01:17:04;;;;;;;9.35;1.52;;;14.00;98.90;;;;;;7399388;19;20338;-73
2023/03/28 01:19:57;;;;;;;14.10;2.47;;;13.90;99.00;;;;;;7401888;19;19915;-73
2023/03/28 01:22:38;;;;;;;8.73;1.77;;;13.90;98.90;;;;;;7397946;19;19930;-72
2023/03/28 01:25:32;;;;;;;13.15;2.05;;;13.80;99.30;;;;;;7396126;19;19922;-72
2023/03/28 01:28:28;;;;;;;10.40;1.60;;;13.90;98.90;;;;;;7402063;19;19914;-73
2023/03/28 01:31:29;;;;;;;7.93;1.58;;;13.90;99.10;;;;;;7399124;19;20343;-73
2023/03/28 01:34:28;;;;;;;11.20;1.55;;;13.90;99.00;;;;;;7399216;19;19933;-73
2023/03/28 01:36:58;;;;;;;7.82;1.55;;;14.00;98.90;;;;;;7399469;19;19918;-73
2023/03/28 01:39:33;;;;;;;9.43;1.60;;;13.90;99.20;;;;;;7396682;19;19918;-73
2023/03/28 01:42:31;;;;;;;10.40;1.33;;;13.90;99.00;;;;;;7402929;19;19918;-72
2023/03/28 01:45:13;;;;;;;11.15;1.95;;;13.90;99.00;;;;;;7397739;19;19926;-74
2023/03/28 01:47:47;;;;;;;10.23;1.70;;;13.90;98.80;;;;;;7400785;19;19918;-73
2023/03/28 01:50:17;;;;;;;11.82;1.98;;;13.80;99.20;;;;;;7400162;19;19919;-72
2023/03/28 01:53:02;;;;;;;11.52;1.20;;;13.80;99.30;;;;;;7400982;19;20011;-73
2023/03/28 01:55:42;;;;;;;12.07;1.40;;;13.90;99.20;;;;;;7398150;19;19946;-73
2023/03/28 01:58:22;;;;;;;14.07;2.00;;;13.90;99.00;;;;;;7347140;19;19907;-73
2023/03/28 02:01:01;;;;;;;12.57;1.67;;;13.90;99.00;;;;;;7400414;19;19927;-73
2023/03/28 02:03:41;;;;;;;10.07;1.80;;;14.00;99.20;;;;;;7368045;19;19927;-73
2023/03/28 02:06:09;;;;;;;14.52;1.85;;;13.90;99.30;;;;;;7402132;19;21567;-73
2023/03/28 02:08:38;;;;;;;7.80;1.80;;;13.90;99.50;;;;;;7406379;19;19943;-73
2023/03/28 02:11:05;;;;;;;9.98;1.83;;;13.90;99.40;;;;;;7402037;19;20275;-73
2023/03/28 02:13:39;;;;;;;11.75;1.88;;;13.90;99.80;;;;;;7408039;19;20036;-73
2023/03/28 02:16:06;;;;;;;13.45;1.70;;;13.90;99.50;;;;;;7403919;19;19915;-73
2023/03/28 02:18:40;;;;;;;8.80;1.40;;;13.80;99.70;;;;;;7385217;19;19952;-72
2023/03/28 02:21:20;;;;;;;8.30;1.33;;;13.80;99.90;;;;;;7404699;19;19997;-72
2023/03/28 02:23:53;;;;;;;11.55;2.47;;;13.70;99.90;;;;;;7402554;19;20775;-72
2023/03/28 02:26:21;;;;;;;11.52;1.45;;;13.60;99.90;;;;;;7405133;19;19911;-73
2023/03/28 02:28:51;;;;;;;11.85;1.70;;;13.60;99.90;;;;;;7404698;19;19925;-73
2023/03/28 02:31:20;;;;;;;11.40;1.75;;;13.50;99.90;;;;;;7405985;19;19914;-74
2023/03/28 02:33:47;;;;;;;13.23;1.58;;;13.60;99.90;;;;;;7407129;19;20330;-73
2023/03/28 02:36:41;;;;;;;8.20;1.55;;;13.50;99.90;;;;;;7407321;19;19930;-73
2023/03/28 02:39:44;;;;;;;7.18;1.42;;;13.50;99.90;;;;;;7407417;19;19915;-75
2023/03/28 02:42:10;;;;;;;13.60;1.90;;;13.50;99.90;;;;;;7405256;19;19952;-73
2023/03/28 02:44:59;;;;;;;12.68;1.67;;;13.60;99.90;;;;;;7407310;19;19911;-73
2023/03/28 02:47:40;;;;;;;14.05;2.30;;;13.50;99.90;;;;;;7381491;19;19930;-73
2023/03/28 02:50:26;;;;;;;11.27;1.75;;;13.50;99.90;;;;;;7403612;19;20373;-73
2023/03/28 02:52:55;;;;;;;;;;;13.50;99.90;;;;;;7406485;19;20007;-71
2023/03/28 02:55:49;;;;;;;9.70;1.63;;;13.50;99.90;;;;;;7402332;19;19918;-72
2023/03/28 02:58:25;;;;;;;15.98;2.00;;;13.50;99.90;;;;;;7401491;19;19927;-72
2023/03/28 03:00:51;;;;;;;10.73;1.55;;;13.60;99.90;;;;;;7404019;19;19918;-72
2023/03/28 03:03:17;;;;;;;11.00;1.95;;;13.60;99.90;;;;;;7404477;19;19990;-72
2023/03/28 03:05:43;;;;;;;11.43;2.00;;;13.70;99.90;;;;;;7404484;19;19941;-71
2023/03/28 03:08:09;;;;;;;14.65;1.95;;;13.70;99.90;;;;;;7404952;19;20460;-72
2023/03/28 03:10:35;;;;;;;13.18;2.20;;;13.80;99.90;;;;;;7405966;19;19978;-72
2023/03/28 03:13:01;;;;;;;11.48;2.08;;;13.90;99.90;;;;;;7407080;19;19919;-73
2023/03/28 03:15:29;;;;;;;8.27;1.65;;;13.90;99.90;;;;;;7404530;19;19915;-72
2023/03/28 03:17:59;;;;;;;7.72;1.88;;;14.00;99.90;;;;;;7398673;19;19935;-72
2023/03/28 03:20:27;;;;;;;14.10;2.97;;;14.00;99.90;;;;;;7405954;19;19921;-72
2023/03/28 03:22:54;;;;;;;14.40;2.20;;;14.00;99.70;;;;;;7403485;19;19918;-72
2023/03/28 03:25:20;;;;;;;9.15;1.77;;;14.00;99.60;;;;;;7401826;19;19922;-72
2023/03/28 03:27:46;;;;;;;13.80;2.22;;;13.90;98.90;;;;;;7400972;19;20331;-72
2023/03/28 03:30:12;;;;;;;11.23;1.60;;;13.70;98.50;;;;;;7404173;19;19939;-73
2023/03/28 03:32:38;;;;;;;7.05;1.95;;;13.60;98.70;;;;;;7403972;19;19918;-72
2023/03/28 03:35:05;;;;;;;8.70;2.08;;;13.40;99.10;;;;;;7404142;19;19998;-73
2023/03/28 03:37:31;;;;;;;10.25;1.77;;;13.40;99.70;;;;;;7403254;19;19918;-73
2023/03/28 03:39:57;;;;;;;12.40;2.03;;;13.40;99.90;;;;;;7403521;19;20350;-73
2023/03/28 03:42:23;;;;;;;7.57;1.70;;;13.30;99.90;;;;;;7403645;19;19923;-72
2023/03/28 03:44:49;;;;;;;10.13;1.95;;;13.20;99.90;;;;;;7405434;19;19986;-73
2023/03/28 03:47:16;;;;;;;9.82;2.40;;;13.10;99.90;;;;;;7400580;19;19926;-73
2023/03/28 03:49:42;;;;;;;10.75;2.25;;;13.00;99.90;;;;;;7401923;19;19910;-73
2023/03/28 03:52:08;;;;;;;12.85;2.00;;;12.80;99.90;;;;;;7403839;19;19915;-72
2023/03/28 03:54:34;;;;;;;9.00;1.63;;;12.60;99.90;;;;;;7401201;19;19923;-73
2023/03/28 03:57:01;;;;;;;9.40;1.60;;;12.50;99.90;;;;;;7402306;19;20243;-73
2023/03/28 03:59:27;;;;;;;7.43;1.50;;;12.40;99.90;;;;;;7401168;19;19921;-73
2023/03/28 04:01:54;;;;;;;10.20;1.95;;;12.30;99.90;;;;;;7398895;19;20339;-76
2023/03/28 04:04:20;;;;;;;;;;;12.20;99.90;;;;;;7405649;19;19919;-72
2023/03/28 04:06:46;;;;;;;10.10;1.90;;;12.10;99.90;;;;;;7397506;19;19918;-73
2023/03/28 04:09:14;;;;;;;7.80;1.90;;;12.00;99.90;;;;;;7369170;19;19925;-72
2023/03/28 04:11:39;;;;;;;8.35;1.40;;;11.90;99.90;;;;;;7401166;19;19910;-73
2023/03/28 04:14:05;;;;;;;6.53;1.50;;;11.90;99.90;;;;;;7403123;19;20376;-73
2023/03/28 04:16:33;;;;;;;11.98;1.88;;;11.90;99.90;;;;;;7403757;19;19926;-74
2023/03/28 04:18:59;;;;;;;11.45;1.88;;;11.90;99.90;;;;;;7406712;19;19925;-73
2023/03/28 04:21:29;;;;;;;9.98;1.98;;;11.90;99.90;;;;;;7401720;19;19926;-74
2023/03/28 04:24:00;;;;;;;9.98;1.50;;;11.90;99.90;;;;;;7399520;19;19935;-72
2023/03/28 04:26:27;;;;;;;7.15;1.60;;;11.90;99.90;;;;;;7400597;19;19983;-73
2023/03/28 04:28:53;;;;;;;7.88;2.08;;;11.90;99.90;;;;;;7401694;19;19938;-74
2023/03/28 04:31:22;;;;;;;10.57;2.03;;;11.90;99.90;;;;;;7400052;19;19911;-74
2023/03/28 04:33:52;;;;;;;9.68;2.53;;;11.90;99.90;;;;;;7402074;19;19946;-72
2023/03/28 04:36:21;;;;;;;9.55;1.92;;;11.80;99.90;;;;;;7401452;19;19939;-74
2023/03/28 04:38:48;;;;;;;13.88;1.90;;;11.80;99.90;;;;;;7370702;19;19925;-73
2023/03/28 04:41:15;;;;;;;6.53;1.50;;;11.80;99.90;;;;;;7400106;19;19914;-73
2023/03/28 04:43:42;;;;;;;12.27;2.10;;;11.80;99.90;;;;;;7400613;19;19986;-73
2023/03/28 04:46:09;;;;;;;8.85;1.52;;;11.80;99.90;;;;;;7402010;19;19934;-73
2023/03/28 04:48:35;;;;;;;9.25;1.92;;;11.80;99.90;;;;;;7404178;19;19910;-74
2023/03/28 04:51:02;;;;;;;9.90;1.38;;;11.80;99.90;;;;;;7401471;19;19911;-73
2023/03/28 04:53:28;;;;;;;11.13;1.50;;;11.80;99.90;;;;;;7402208;19;19935;-73
2023/03/28 04:55:54;;;;;;;11.05;1.95;;;11.70;99.90;;;;;;7402773;19;19931;-72
2023/03/28 04:58:21;;;;;;;11.70;1.77;;;11.80;99.90;;;;;;7400869;19;19931;-73
2023/03/28 05:00:48;;;;;;;7.07;1.70;;;11.80;99.90;;;;;;7402620;19;19930;-74
2023/03/28 05:03:22;;;;;;;11.18;2.00;;;11.80;99.90;;;;;;7369326;19;19936;-73
2023/03/28 05:05:50;;;;;;;7.28;1.52;;;11.80;99.90;;;;;;7403118;19;20295;-73
2023/03/28 05:08:17;;;;;;;8.02;1.98;;;11.70;99.90;;;;;;7400559;19;19926;-73
2023/03/28 05:10:46;;;;;;;10.55;1.63;;;11.80;99.90;;;;;;7400526;19;20245;-73
2023/03/28 05:13:12;;;;;;;9.13;1.30;;;11.70;99.90;;;;;;7401879;19;19922;-73
2023/03/28 05:15:38;;;;;;;8.32;1.70;;;11.60;99.90;;;;;;7401381;19;20263;-73
2023/03/28 05:18:04;;;;;;;13.77;1.80;;;11.50;99.90;;;;;;7401459;19;19974;-73
2023/03/28 05:20:31;;;;;;;8.43;2.13;;;11.50;99.90;;;;;;7403266;19;19929;-74
2023/03/28 05:22:57;;;;;;;;;;;11.60;99.90;;;;;;7403370;19;19936;-73
2023/03/28 05:25:24;;;;;;;8.18;1.85;;;11.60;99.90;;;;;;7401623;19;19914;-74
2023/03/28 05:27:50;;;;;;;8.73;1.75;;;11.60;99.90;;;;;;7400643;19;19954;-74
2023/03/28 05:30:16;;;;;;;12.07;1.50;;;11.60;99.90;;;;;;7398757;19;19950;-76
2023/03/28 05:32:42;;;;;;;10.73;1.70;;;11.60;99.90;;;;;;7403732;19;19915;-73
2023/03/28 05:35:10;;;;;;;9.10;2.10;;;11.60;99.90;;;;;;7399539;19;19990;-74
2023/03/28 05:37:36;;;;;;;10.68;2.03;;;11.70;99.90;;;;;;7401712;19;19915;-74
2023/03/28 05:40:06;;;;;;;10.63;2.08;;;11.80;99.90;;;;;;7398327;19;19934;-72
2023/03/28 05:42:33;;;;;;;9.73;2.13;;;11.70;99.90;;;;;;7406734;19;19927;-73
2023/03/28 05:44:59;;;;;;;8.45;2.00;;;11.80;99.90;;;;;;7405469;19;19918;-74
2023/03/28 05:47:24;;;;;;;8.90;1.95;;;11.90;99.90;;;;;;7407354;19;19946;-73
2023/03/28 05:49:50;;;;;;;11.65;2.25;;;11.80;99.90;;;;;;7403782;19;19919;-73
2023/03/28 05:52:16;;;;;;;7.50;1.98;;;11.80;99.90;;;;;;7386370;19;19918;-74
2023/03/28 05:54:42;;;;;;;6.80;2.03;;;11.90;99.90;;;;;;7407427;19;19928;-73
2023/03/28 05:57:08;;;;;;;11.77;2.10;;;11.90;99.90;;;;;;7407815;19;20473;-74
2023/03/28 05:59:33;;;;;;;9.00;1.63;;;11.90;99.90;;;;;;7405533;19;20306;-73
2023/03/28 06:02:02;;;;;;;10.35;1.83;;;11.90;99.90;;;;;;7402613;19;19924;-73
2023/03/28 06:04:28;;;;;;;13.65;2.40;;;11.90;99.90;;;;;;7405803;19;20382;-73
2023/03/28 06:06:54;;;;;;;6.65;1.70;;;12.00;99.90;;;;;;7406587;19;19906;-73
2023/03/28 06:09:20;;;;;;;10.63;2.25;;;12.00;99.90;;;;;;7403038;19;19918;-73
2023/03/28 06:11:45;;;;;;;11.35;2.08;;;12.00;99.90;;;;;;7407500;19;19910;-74
2023/03/28 06:14:11;;;;;;;9.70;1.83;;;12.00;99.90;;;;;;7381779;19;19926;-74
2023/03/28 06:16:37;;;;;;;9.10;1.90;;;12.10;99.90;;;;;;7406955;19;19933;-73
2023/03/28 06:19:04;;;;;;;8.27;2.28;;;12.20;99.90;;;;;;7404708;19;19922;-73
2023/03/28 06:21:30;;;;;;;9.07;1.90;;;12.30;99.90;;;;;;7406554;19;19911;-73
2023/03/28 06:23:55;;;;;;;11.40;1.80;;;12.50;99.90;;;;;;7401066;19;19937;-72
2023/03/28 06:26:21;;;;;;;12.50;2.28;;;12.60;99.90;;;;;;7402808;19;19919;-73
2023/03/28 06:28:47;;;;;;;10.68;1.90;;;12.60;99.90;;;;;;7404390;19;19914;-73
2023/03/28 06:31:13;;;;;;;10.23;1.77;;;12.60;99.90;;;;;;7405037;19;20267;-74
2023/03/28 06:33:40;;;;;;;9.70;1.67;;;12.40;99.90;;;;;;7408959;19;19914;-73
2023/03/28 06:36:10;;;;;;;7.93;1.42;;;12.50;99.90;;;;;;7406109;19;19914;-74
2023/03/28 06:38:36;;;;;;;7.68;1.42;;;12.50;99.90;;;;;;7403608;19;19911;-74
2023/03/28 06:41:02;;;;;;;13.60;2.20;;;12.60;99.90;;;;;;7395446;19;19925;-73
2023/03/28 06:43:30;;;;;;;8.35;2.10;;;12.70;99.90;;;;;;7385203;19;19919;-74
2023/03/28 06:45:56;;;;;;;11.55;2.00;;;12.80;99.90;;;;;;7403514;19;19911;-74
2023/03/28 06:48:23;;;;;;;10.95;2.15;;;12.80;99.90;;;;;;7400435;19;19982;-75
2023/03/28 06:50:49;;;;;;;;;;;12.80;99.90;;;;;;7386533;19;19980;-74
2023/03/28 06:53:19;;;;;;;10.73;2.08;;;12.80;99.90;;;;;;7403035;19;19922;-74
2023/03/28 06:55:47;;;;;;;8.98;1.92;;;12.80;99.90;;;;;;7404347;19;20293;-73
2023/03/28 06:58:13;;;;;;;9.07;1.98;;;13.00;99.90;;;;;;7402496;19;19918;-74
2023/03/28 07:00:39;;;;;;;15.02;1.92;;;13.00;99.90;;;;;;7392959;19;20857;-74
2023/03/28 07:03:05;;;;;;;11.13;2.22;;;13.10;99.90;;;;;;7398739;19;20271;-73
2023/03/28 07:05:31;;;;;;;9.23;1.73;;;13.20;99.90;;;;;;7396755;19;19935;-73
2023/03/28 07:07:57;;;;;;;14.70;2.20;;;13.20;99.90;;;;;;7398761;19;19914;-73
2023/03/28 07:10:22;;;;;;;9.75;1.73;;;13.20;99.60;;;;;;7395136;19;19962;-73
2023/03/28 07:12:48;;;;;;;10.75;1.73;;;13.30;99.10;;;;;;7394785;19;20021;-75
2023/03/28 07:15:14;;;;;;;12.30;2.30;;;13.30;99.10;;;;;;7401990;19;19922;-74
2023/03/28 07:17:40;;;;;;;11.80;2.00;;;13.40;99.20;;;;;;7398319;19;19919;-73
2023/03/28 07:20:06;;;;;;;9.88;2.05;;;13.40;98.40;;;;;;7394114;19;19929;-73
2023/03/28 07:22:32;;;;;;;12.93;2.25;;;13.40;98.70;;;;;;7386443;19;20279;-74
2023/03/28 07:24:57;;;;;;;9.38;1.50;;;13.50;98.70;;;;;;7390283;19;19914;-74
2023/03/28 07:27:23;;;;;;;9.70;1.80;;;13.60;98.60;;;;;;7399808;19;19918;-75
2023/03/28 07:29:49;;;;;;;6.30;1.60;;;13.50;98.30;;;;;;7397205;19;19914;-73
2023/03/28 07:32:15;;;;;;;12.88;1.90;;;13.60;98.60;;;;;;7395994;19;19954;-72
2023/03/28 07:34:41;;;;;;;13.13;1.83;;;13.70;98.00;;;;;;7406181;19;19935;-73
2023/03/28 07:37:08;;;;;;;6.85;1.70;;;13.80;98.00;;;;;;7401999;19;19918;-74
2023/03/28 07:39:38;;;;;;;9.32;1.40;;;13.80;97.40;;;;;;7403547;19;19915;-74
2023/03/28 07:42:09;;;;;;;9.18;1.40;;;13.80;97.30;;;;;;7404464;19;19919;-73
2023/03/28 07:44:35;;;;;;;8.70;1.65;;;13.90;97.40;;;;;;7404011;19;19978;-73
2023/03/28 07:47:01;;;;;;;10.13;1.60;;;13.90;96.90;;;;;;7389868;19;19923;-74
2023/03/28 07:49:27;;;;;;;9.77;1.50;;;13.80;97.00;;;;;;7399494;19;20395;-74
2023/03/28 07:51:52;;;;;;;10.57;1.75;;;13.60;97.10;;;;;;7392228;19;19930;-73
2023/03/28 07:54:18;;;;;;;9.05;2.30;;;13.70;97.20;;;;;;7365348;19;19938;-72
2023/03/28 07:56:45;;;;;;;8.75;2.08;;;13.50;97.20;;;;;;7394507;19;19910;-73
2023/03/28 07:59:14;;;;;;;8.80;1.80;;;13.60;97.60;;;;;;7354522;19;19914;-74
2023/03/28 08:01:41;;;;;;;10.00;1.80;;;13.90;97.20;;;;;;7384388;19;19922;-73
2023/03/28 08:04:08;;;;;;;11.50;2.40;;;13.60;97.00;;;;;;7346075;19;19913;-73
2023/03/28 08:06:36;;;;;;;8.50;1.83;;;13.80;97.40;;;;;;7348464;19;19915;-75
2023/03/28 08:09:07;;;;;;;12.43;2.55;;;14.10;96.80;;;;;;7365141;19;19914;-73
2023/03/28 08:11:34;;;;;;;11.02;1.52;;;14.30;96.30;;;;;;7360903;19;20356;-72
2023/03/28 08:14:04;;;;;;;10.35;2.20;;;14.20;95.90;;;;;;7361914;19;19934;-73
2023/03/28 08:16:31;;;;;;;8.77;2.00;;;14.10;96.10;;;;;;7369542;19;20540;-73
2023/03/28 08:18:57;;;;;;;8.70;1.98;;;14.10;95.70;;;;;;7393809;19;19914;-73
2023/03/28 08:21:24;;;;;;;10.30;1.95;;;14.00;96.20;;;;;;7400700;19;19986;-74
2023/03/28 08:23:50;;;;;;;;;;;13.90;96.10;;;;;;7403656;19;19919;-73
2023/03/28 08:26:16;;;;;;;14.07;1.85;;;14.10;96.10;;;;;;7400525;19;19998;-75
2023/03/28 08:28:42;;;;;;;6.70;1.75;;;14.40;95.80;;;;;;7371466;19;19922;-74
2023/03/28 08:31:13;;;;;;;15.55;1.83;;;14.50;95.10;;;;;;7400586;19;19966;-73
2023/03/28 08:33:50;;;;;;;13.13;2.20;;;14.50;95.40;;;;;;7402965;19;19990;-72
2023/03/28 08:36:16;;;;;;;9.02;1.90;;;14.50;95.50;;;;;;7399528;19;19914;-74
2023/03/28 08:38:46;;;;;;;13.93;2.95;;;14.60;95.10;;;;;;7370666;19;19919;-74
2023/03/28 08:41:39;;;;;;;9.38;2.05;;;14.90;95.00;;;;;;7400853;19;19923;-73
2023/03/28 08:44:29;;;;;;;12.38;2.08;;;15.30;94.10;;;;;;7401932;19;19918;-72
2023/03/28 08:47:16;;;;;;;10.25;2.10;;;15.70;92.60;;;;;;7404217;19;19935;-74
2023/03/28 08:50:00;;;;;;;21.60;3.88;;;15.30;93.00;;;;;;7400702;19;19915;-73
2023/03/28 08:52:27;;;;;;;9.75;2.17;;;15.50;92.80;;;;;;7400518;19;19930;-73
2023/03/28 08:55:23;;;;;;;11.85;2.25;;;16.70;91.50;;;;;;7401848;19;19918;-72
2023/03/28 08:57:52;;;;;;;9.95;2.78;;;16.10;91.80;;;;;;7399260;19;19926;-73
2023/03/28 09:00:29;;;;;;;11.05;2.33;;;15.90;92.10;;;;;;7401231;19;19914;-74
2023/03/28 09:02:56;;;;;;;16.08;2.28;;;15.60;92.20;;;;;;7397971;19;19935;-73
2023/03/28 09:05:42;;;;;;;14.80;2.67;;;15.30;92.80;;;;;;7397713;19;19930;-73
2023/03/28 09:08:40;;;;;;;11.60;2.15;;;15.40;93.10;;;;;;7399770;19;19919;-74
2023/03/28 09:11:18;;;;;;;13.60;2.28;;;15.40;92.70;;;;;;7369988;19;20358;-74
2023/03/28 09:13:47;;;;;;;9.73;2.38;;;15.00;93.30;;;;;;7402315;19;19923;-74
2023/03/28 09:16:31;;;;;;;12.45;2.20;;;15.00;93.60;;;;;;7400296;19;19921;-74
2023/03/28 09:19:03;;;;;;;9.43;1.80;;;14.90;93.60;;;;;;7407380;19;20251;-73
2023/03/28 09:21:30;;;;;;;14.65;2.30;;;15.00;93.80;;;;;;7405219;19;19915;-73
2023/03/28 09:24:25;;;;;;;12.43;2.10;;;14.90;93.60;;;;;;7406710;19;19929;-73
2023/03/28 09:27:16;;;;;;;11.73;2.55;;;14.80;94.10;;;;;;7375348;19;19914;-74
2023/03/28 09:29:44;;;;;;;12.90;2.47;;;14.90;93.50;;;;;;7404082;19;19918;-73
2023/03/28 09:32:30;;;;;;;11.73;2.35;;;15.00;93.90;;;;;;7373608;19;19977;-73
2023/03/28 09:34:57;;;;;;;8.50;2.13;;;15.10;93.80;;;;;;7408329;19;19945;-74
2023/03/28 09:37:41;;;;;;;10.48;2.28;;;16.20;92.70;;;;;;7405421;19;20344;-73
2023/03/28 09:40:35;;;;;;;9.32;1.98;;;15.80;91.90;;;;;;7402523;19;19910;-72
2023/03/28 09:43:10;;;;;;;11.15;2.55;;;15.50;92.80;;;;;;7406979;19;19918;-73
2023/03/28 09:46:01;;;;;;;12.07;2.80;;;16.80;91.10;;;;;;7407578;19;19937;-73
2023/03/28 09:48:33;;;;;;;9.50;2.00;;;17.20;89.20;;;;;;7407119;19;19942;-74
2023/03/28 09:51:00;;;;;;;9.43;2.60;;;17.00;90.00;;;;;;7405054;19;19919;-74
2023/03/28 09:53:35;;;;;;;13.27;2.67;;;16.80;90.40;;;;;;7408407;19;19929;-74
2023/03/28 09:56:06;;;;;;;12.98;2.83;;;16.50;90.60;;;;;;7405543;19;19914;-74
2023/03/28 09:58:56;;;;;;;11.35;2.22;;;16.20;90.80;;;;;;7401563;19;19937;-74
2023/03/28 10:01:35;;;;;;;14.15;2.40;;;16.60;90.50;;;;;;7403078;19;19942;-73
2023/03/28 10:04:14;;;;;;;11.55;2.67;;;16.50;91.10;;;;;;7405238;19;19931;-73
2023/03/28 10:06:42;;;;;;;8.80;2.13;;;16.60;90.20;;;;;;7406466;19;20336;-74
2023/03/28 10:09:25;;;;;;;12.73;2.80;;;15.90;91.70;;;;;;7384278;19;20179;-73
2023/03/28 10:11:58;;;;;;;8.85;1.88;;;15.80;91.80;;;;;;7403879;19;19915;-73
2023/03/28 10:14:32;;;;;;;;;;;15.40;92.50;;;;;;7375634;19;20313;-73
2023/03/28 10:17:29;;;;;;;9.35;2.03;;;15.70;92.70;;;;;;7404805;19;19922;-74
2023/03/28 10:20:22;;;;;;;11.40;2.30;;;15.80;92.30;;;;;;7403437;19;20236;-73
2023/03/28 10:22:50;;;;;;;10.68;1.98;;;15.70;92.30;;;;;;7403538;19;19921;-74
2023/03/28 10:25:30;;;;;;;11.75;2.92;;;15.80;92.40;;;;;;7405589;19;20273;-73
2023/03/28 10:27:59;;;;;;;10.07;2.65;;;15.40;92.70;;;;;;7404983;19;19946;-73
2023/03/28 10:30:27;;;;;;;12.73;2.80;;;15.60;92.70;;;;;;7397612;19;19914;-72
2023/03/28 10:33:16;;;;;;;11.95;3.05;;;15.40;93.00;;;;;;7395165;19;19932;-74
2023/03/28 10:35:47;;;;;;;10.63;2.13;;;14.90;94.10;;;;;;7378976;19;20239;-73
2023/03/28 10:38:15;;;;;;;10.90;2.25;;;15.00;94.00;;;;;;7371034;19;19919;-73
2023/03/28 10:40:41;;;;;;;10.10;2.47;;;14.60;94.90;;;;;;7398052;19;19915;-72
2023/03/28 10:43:14;;;;;;;12.75;2.35;;;14.50;94.90;;;;;;7399113;19;24377;-74
2023/03/28 10:45:49;;;;;;;10.50;2.28;;;14.60;95.60;;;;;;7388960;19;19953;-74
2023/03/28 10:48:25;;;;;;;9.75;2.28;;;14.20;95.70;;;;;;7400462;19;19956;-74
2023/03/28 10:50:57;;;;;;;7.82;1.75;;;14.40;96.00;;;;;;7394017;19;19915;-73
2023/03/28 10:53:44;;;;;;;12.43;1.70;;;14.20;96.40;;;;;;7371409;19;19915;-73
2023/03/28 10:56:17;;;;;;;11.80;3.00;;;14.50;96.10;;;;;;7395017;19;19910;-73
2023/03/28 10:59:10;;;;;;;14.02;2.20;;;14.90;95.60;;;;;;7397041;19;20290;-73
2023/03/28 11:01:55;;;;;;;8.10;1.92;;;14.70;95.60;;;;;;7396879;19;19914;-73
2023/03/28 11:04:50;;;;;;;11.10;1.90;;;14.60;95.80;;;;;;7397535;19;20279;-74
2023/03/28 11:07:36;;;;;;;17.60;2.42;;;14.60;96.10;;;;;;7401356;19;19922;-73
2023/03/28 11:10:07;;;;;;;9.15;1.88;;;14.90;95.80;;;;;;7392773;19;19922;-74
2023/03/28 11:12:58;;;;;;;12.77;2.08;;;14.70;95.10;;;;;;7396960;19;20270;-73
2023/03/28 11:15:23;;;;;;;11.70;2.25;;;15.00;95.10;;;;;;7396159;19;21429;-73
2023/03/28 11:18:07;;;;;;;11.45;2.38;;;15.50;94.60;;;;;;7393575;19;19918;-74
2023/03/28 11:20:39;;;;;;;11.52;2.28;;;15.70;94.40;;;;;;7397785;19;19933;-73
2023/03/28 11:23:18;;;;;;;10.18;2.33;;;15.70;94.00;;;;;;7378004;19;20263;-74
2023/03/28 11:26:08;;;;;;;14.43;2.22;;;15.90;93.80;;;;;;7400849;19;20010;-74
2023/03/28 11:29:18;;;;;;;11.23;2.75;;;15.40;95.10;;;;;;7389346;19;19947;-73
2023/03/28 11:32:07;;;;;;;12.75;2.88;;;15.30;95.40;;;;;;7375848;19;19911;-73
2023/03/28 11:35:01;;;;;;;16.13;2.47;;;15.20;95.60;;;;;;7391027;19;19927;-74
2023/03/28 11:37:43;;;;;;;12.57;2.63;;;15.70;94.90;;;;;;7402799;19;19941;-73
2023/03/28 11:40:23;;;;;;;12.82;2.67;;;15.60;95.20;;;;;;7395501;19;20641;-73
2023/03/28 11:42:59;;;;;;;10.20;2.53;;;15.80;94.50;;;;;;7401769;19;19910;-72
2023/03/28 11:45:33;;;;;;;6.65;2.13;;;15.40;95.30;;;;;;7390396;19;20303;-73
2023/03/28 11:48:26;;;;;;;14.60;2.83;;;15.30;95.60;;;;;;7379949;19;19923;-73
2023/03/28 11:51:18;;;;;;;11.00;2.40;;;15.00;95.90;;;;;;7383921;19;19911;-75
2023/03/28 11:53:50;;;;;;;13.55;2.72;;;14.80;97.00;;;;;;7377429;19;19911;-74
2023/03/28 11:56:48;;;;;;;12.57;2.90;;;14.60;97.50;;;;;;7400941;19;19966;-74
2023/03/28 11:59:35;;;;;;;13.75;2.75;;;14.60;97.70;;;;;;7389976;19;19918;-72
2023/03/28 12:02:14;;;;;;;12.50;2.60;;;14.40;98.30;;;;;;7395905;19;19936;-72
2023/03/28 12:05:03;;;;;;;12.80;2.58;;;14.60;98.20;;;;;;7401552;19;20407;-74
2023/03/28 12:07:37;;;;;;;13.10;2.30;;;14.70;98.10;;;;;;7396108;19;20247;-73
2023/03/28 12:10:26;;;;;;;14.07;2.97;;;14.90;97.70;;;;;;7394635;19;19918;-73
2023/03/28 12:13:14;;;;;;;12.57;2.88;;;15.10;97.00;;;;;;7396845;19;19926;-73
2023/03/28 12:16:07;;;;;;;14.55;2.88;;;15.20;97.30;;;;;;7404834;19;20335;-74
2023/03/28 12:18:42;;;;;;;11.70;2.63;;;15.00;97.30;;;;;;7401949;19;19923;-73
2023/03/28 12:21:34;;;;;;;9.23;2.45;;;14.80;97.90;;;;;;7399535;19;19918;-74
2023/03/28 12:24:12;;;;;;;11.00;2.67;;;14.80;98.10;;;;;;7403417;19;20524;-73
2023/03/28 12:26:51;;;;;;;8.93;2.08;;;14.60;98.40;;;;;;7401921;19;19927;-73
2023/03/28 12:29:27;;;;;;;16.17;4.00;;;14.80;98.40;;;;;;7335405;19;19910;-73
2023/03/28 12:32:23;;;;;;;13.45;2.58;;;15.00;98.20;;;;;;7404214;19;19942;-73
2023/03/28 12:35:07;;;;;;;13.75;2.63;;;15.40;97.30;;;;;;7400035;19;19964;-74
2023/03/28 12:37:38;;;;;;;;;;;15.40;97.40;;;;;;7404907;19;20532;-73
2023/03/28 12:40:28;;;;;;;10.05;1.98;;;15.40;97.30;;;;;;7402279;19;19919;-73
2023/03/28 12:42:56;;;;;;;11.07;1.92;;;15.80;96.50;;;;;;7402667;19;19925;-74
2023/03/28 12:45:30;;;;;;;12.60;3.05;;;15.50;96.10;;;;;;7399677;19;19939;-74
2023/03/28 12:48:04;;;;;;;11.93;2.55;;;15.30;97.00;;;;;;7401422;19;20498;-73
2023/03/28 12:50:51;;;;;;;16.13;2.67;;;15.90;95.90;;;;;;7395642;19;19936;-74
2023/03/28 12:53:17;;;;;;;23.33;2.58;;;16.10;95.60;;;;;;7397261;19;19911;-75
2023/03/28 12:55:48;;;;;;;11.10;2.03;;;15.80;96.00;;;;;;7401145;19;19918;-74
2023/03/28 12:58:45;;;;;;;11.23;1.85;;;15.80;96.40;;;;;;7397730;19;20300;-73
2023/03/28 13:01:24;;;;;;;9.52;2.05;;;15.20;96.60;;;;;;7396796;19;19930;-73
2023/03/28 13:04:02;;;;;;;9.38;2.40;;;15.10;96.90;;;;;;7398407;19;19915;-73
2023/03/28 13:06:38;;;;;;;12.30;1.85;;;15.10;97.40;;;;;;7398105;19;19910;-72
2023/03/28 13:09:19;;;;;;;10.70;1.90;;;15.10;97.50;;;;;;7397172;19;19922;-74
2023/03/28 13:12:02;;;;;;;9.45;2.05;;;15.20;97.80;;;;;;7399937;19;19938;-74
2023/03/28 13:14:39;;;;;;;13.70;2.47;;;15.40;97.50;;;;;;7400069;19;19915;-74